EDDK/CGN METAR and TAF weather

Enter ICAO airport designator
Station Type Date Time Source
EDDK METAR 2019/08/19 11:50 UTC NOAA

EDDK 191150Z 27009KT 9999 SCT048 21/10 Q1017 NOSIG


Station Type Date Time Source
EDDK Decoded METAR 2019/08/19 11:50 UTC NOAA

Station name not available
Aug 19, 2019 - 07:50 AM EDT / 2019.08.19 1150 UTC
Wind: from the W (270 degrees) at 10 MPH (9 KT):0
Visibility: greater than 7 mile(s):0
Sky conditions: partly cloudy
Temperature: 69 F (21 C)
Dew Point: 50 F (10 C)
Relative Humidity: 49%
Pressure (altimeter): 30.03 in. Hg (1017 hPa)
ob: EDDK 191150Z 27009KT 9999 SCT048 21/10 Q1017 NOSIG
cycle: 12

Station Type Date Time Source
EDDK TAF 2019/08/19 12:27 UTC NOAA

TAF EDDK 191100Z 1912/2018 26010KT CAVOK
BECMG 1918/1921 15003KT
BECMG 2008/2011 27007KT

Example: see airport list